sensor_id;sensor_type;location;lat;lon;timestamp;pressure;altitude;pressure_sealevel;temperature;humidity
68075;BME280;54864;52.002;5.468;2023-08-12T00:00:34;101581.31;;;22.64;80.56
68075;BME280;54864;52.002;5.468;2023-08-12T00:01:36;101582.53;;;22.60;80.89
68075;BME280;54864;52.002;5.468;2023-08-12T00:02:40;101595.63;;;22.53;81.14
68075;BME280;54864;52.002;5.468;2023-08-12T00:03:41;101594.41;;;22.57;81.03
68075;BME280;54864;52.002;5.468;2023-08-12T00:04:42;101603.06;;;22.61;81.13
68075;BME280;54864;52.002;5.468;2023-08-12T00:05:45;101605.16;;;22.57;81.54
68075;BME280;54864;52.002;5.468;2023-08-12T00:06:48;101593.81;;;22.54;81.55
68075;BME280;54864;52.002;5.468;2023-08-12T00:07:49;101595.25;;;22.58;81.58
68075;BME280;54864;52.002;5.468;2023-08-12T00:08:51;101583.66;;;22.57;81.56
68075;BME280;54864;52.002;5.468;2023-08-12T00:09:52;101582.66;;;22.58;81.71
68075;BME280;54864;52.002;5.468;2023-08-12T00:10:54;101584.38;;;22.59;81.86
68075;BME280;54864;52.002;5.468;2023-08-12T00:11:54;101584.97;;;22.63;81.42
68075;BME280;54864;52.002;5.468;2023-08-12T00:12:56;101579.13;;;22.58;81.87
68075;BME280;54864;52.002;5.468;2023-08-12T00:13:57;101588.03;;;22.58;81.83
68075;BME280;54864;52.002;5.468;2023-08-12T00:14:58;101594.16;;;22.60;81.81
68075;BME280;54864;52.002;5.468;2023-08-12T00:16:00;101583.25;;;22.62;81.83
68075;BME280;54864;52.002;5.468;2023-08-12T00:17:00;101596.09;;;22.58;81.94
68075;BME280;54864;52.002;5.468;2023-08-12T00:18:04;101595.84;;;22.61;81.80
68075;BME280;54864;52.002;5.468;2023-08-12T00:19:06;101595.84;;;22.61;82.04
68075;BME280;54864;52.002;5.468;2023-08-12T00:20:10;101596.97;;;22.59;81.73
68075;BME280;54864;52.002;5.468;2023-08-12T00:21:11;101589.88;;;22.58;81.89
68075;BME280;54864;52.002;5.468;2023-08-12T00:22:13;101591.47;;;22.60;82.07
68075;BME280;54864;52.002;5.468;2023-08-12T00:23:14;101592.31;;;22.61;81.96
68075;BME280;54864;52.002;5.468;2023-08-12T00:24:15;101583.25;;;22.62;82.10
68075;BME280;54864;52.002;5.468;2023-08-12T00:25:17;101583.13;;;22.63;81.66
68075;BME280;54864;52.002;5.468;2023-08-12T00:26:21;101579.47;;;22.64;81.67
68075;BME280;54864;52.002;5.468;2023-08-12T00:27:22;101575.19;;;22.62;81.66
68075;BME280;54864;52.002;5.468;2023-08-12T00:28:23;101583.41;;;22.60;82.07
68075;BME280;54864;52.002;5.468;2023-08-12T00:29:24;101581.69;;;22.59;82.15
68075;BME280;54864;52.002;5.468;2023-08-12T00:30:26;101581.44;;;22.62;81.51
68075;BME280;54864;52.002;5.468;2023-08-12T00:31:27;101581.69;;;22.59;81.63
68075;BME280;54864;52.002;5.468;2023-08-12T00:32:28;101582.94;;;22.55;81.97
68075;BME280;54864;52.002;5.468;2023-08-12T00:33:30;101581.69;;;22.59;81.95
68075;BME280;54864;52.002;5.468;2023-08-12T00:34:32;101570.09;;;22.59;81.79
68075;BME280;54864;52.002;5.468;2023-08-12T00:35:33;101566.28;;;22.61;81.52
68075;BME280;54864;52.002;5.468;2023-08-12T00:36:34;101566.16;;;22.63;81.26
68075;BME280;54864;52.002;5.468;2023-08-12T00:37:37;101563.72;;;22.60;81.63
68075;BME280;54864;52.002;5.468;2023-08-12T00:38:38;101561.03;;;22.60;81.43
68075;BME280;54864;52.002;5.468;2023-08-12T00:39:38;101565.56;;;22.59;81.52
68075;BME280;54864;52.002;5.468;2023-08-12T00:40:40;101562.03;;;22.59;81.68
68075;BME280;54864;52.002;5.468;2023-08-12T00:41:41;101559.72;;;22.54;81.87
68075;BME280;54864;52.002;5.468;2023-08-12T00:42:43;101559.47;;;22.57;81.69
68075;BME280;54864;52.002;5.468;2023-08-12T00:43:43;101560.44;;;22.56;81.62
68075;BME280;54864;52.002;5.468;2023-08-12T00:44:45;101559.72;;;22.54;82.04
68075;BME280;54864;52.002;5.468;2023-08-12T00:45:46;101557.03;;;22.54;81.94
68075;BME280;54864;52.002;5.468;2023-08-12T00:46:48;101553.88;;;22.49;82.09
68075;BME280;54864;52.002;5.468;2023-08-12T00:47:49;101550.06;;;22.52;82.32
68075;BME280;54864;52.002;5.468;2023-08-12T00:48:52;101547.53;;;22.50;81.96
68075;BME280;54864;52.002;5.468;2023-08-12T00:49:54;101551.78;;;22.53;81.93
68075;BME280;54864;52.002;5.468;2023-08-12T00:50:58;101546.66;;;22.50;82.22
68075;BME280;54864;52.002;5.468;2023-08-12T00:51:59;101542.66;;;22.44;82.60
68075;BME280;54864;52.002;5.468;2023-08-12T00:53:02;101547.78;;;22.47;82.68
68075;BME280;54864;52.002;5.468;2023-08-12T00:54:04;101543.63;;;22.43;82.83
68075;BME280;54864;52.002;5.468;2023-08-12T00:55:07;101549.47;;;22.48;82.54
68075;BME280;54864;52.002;5.468;2023-08-12T00:56:08;101534.94;;;22.51;82.35
68075;BME280;54864;52.002;5.468;2023-08-12T00:57:10;101542.16;;;22.50;82.43
68075;BME280;54864;52.002;5.468;2023-08-12T00:58:11;101537.41;;;22.42;82.58
68075;BME280;54864;52.002;5.468;2023-08-12T00:59:13;101541.28;;;22.50;82.33
68075;BME280;54864;52.002;5.468;2023-08-12T01:00:15;101543.78;;;22.41;82.58
68075;BME280;54864;52.002;5.468;2023-08-12T01:01:16;101537.41;;;22.42;82.50
68075;BME280;54864;52.002;5.468;2023-08-12T01:02:19;101544.63;;;22.42;82.46
68075;BME280;54864;52.002;5.468;2023-08-12T01:03:20;101540.94;;;22.43;82.37
68075;BME280;54864;52.002;5.468;2023-08-12T01:04:24;101532.44;;;22.38;82.23
68075;BME280;54864;52.002;5.468;2023-08-12T01:05:24;101538.41;;;22.41;82.25
68075;BME280;54864;52.002;5.468;2023-08-12T01:06:25;101533.88;;;22.42;82.08
68075;BME280;54864;52.002;5.468;2023-08-12T01:07:27;101535.44;;;22.44;81.69
68075;BME280;54864;52.002;5.468;2023-08-12T01:08:30;101535.59;;;22.43;81.76
68075;BME280;54864;52.002;5.468;2023-08-12T01:09:32;101533.75;;;22.43;81.49
68075;BME280;54864;52.002;5.468;2023-08-12T01:10:35;101533.75;;;22.43;81.65
68075;BME280;54864;52.002;5.468;2023-08-12T01:11:42;101534.00;;;22.40;81.55
68075;BME280;54864;52.002;5.468;2023-08-12T01:12:50;101533.16;;;22.40;81.40
68075;BME280;54864;52.002;5.468;2023-08-12T01:13:58;101528.75;;;22.39;81.40
68075;BME280;54864;52.002;5.468;2023-08-12T01:15:06;101534.25;;;22.37;81.16
68075;BME280;54864;52.002;5.468;2023-08-12T01:16:10;101520.09;;;22.35;81.17
68075;BME280;54864;52.002;5.468;2023-08-12T01:17:14;101520.34;;;22.32;81.53
68075;BME280;54864;52.002;5.468;2023-08-12T01:18:17;101516.69;;;22.33;81.30
68075;BME280;54864;52.002;5.468;2023-08-12T01:19:22;101517.53;;;22.34;81.28
68075;BME280;54864;52.002;5.468;2023-08-12T01:20:30;101525.00;;;22.30;81.15
68075;BME280;54864;52.002;5.468;2023-08-12T01:21:36;101525.84;;;22.31;81.23
68075;BME280;54864;52.002;5.468;2023-08-12T01:22:44;101517.81;;;22.31;81.18
68075;BME280;54864;52.002;5.468;2023-08-12T01:23:46;101524.03;;;22.31;81.04
68075;BME280;54864;52.002;5.468;2023-08-12T01:24:48;101511.44;;;22.32;81.03
68075;BME280;54864;52.002;5.468;2023-08-12T01:25:49;101522.31;;;22.30;81.32
68075;BME280;54864;52.002;5.468;2023-08-12T01:26:51;101516.94;;;22.30;81.44
68075;BME280;54864;52.002;5.468;2023-08-12T01:27:52;101512.69;;;22.28;81.71
68075;BME280;54864;52.002;5.468;2023-08-12T01:28:53;101513.19;;;22.22;82.28
68075;BME280;54864;52.002;5.468;2023-08-12T01:29:54;101523.94;;;22.22;82.01
68075;BME280;54864;52.002;5.468;2023-08-12T01:31:01;101510.38;;;22.23;82.25
68075;BME280;54864;52.002;5.468;2023-08-12T01:32:08;101507.69;;;22.23;82.42
68075;BME280;54864;52.002;5.468;2023-08-12T01:33:17;101508.69;;;22.22;82.43
68075;BME280;54864;52.002;5.468;2023-08-12T01:34:25;101507.94;;;22.20;82.31
68075;BME280;54864;52.002;5.468;2023-08-12T01:35:33;101508.69;;;22.22;82.56
68075;BME280;54864;52.002;5.468;2023-08-12T01:36:36;101507.69;;;22.23;82.70
68075;BME280;54864;52.002;5.468;2023-08-12T01:37:39;101503.31;;;22.22;82.65
68075;BME280;54864;52.002;5.468;2023-08-12T01:38:40;101509.53;;;22.23;82.49
68075;BME280;54864;52.002;5.468;2023-08-12T01:39:45;101498.78;;;22.23;82.34
68075;BME280;54864;52.002;5.468;2023-08-12T01:40:49;101497.94;;;22.22;82.49
68075;BME280;54864;52.002;5.468;2023-08-12T01:41:50;101493.41;;;22.23;82.52
68075;BME280;54864;52.002;5.468;2023-08-12T01:42:53;101491.56;;;22.23;82.32
68075;BME280;54864;52.002;5.468;2023-08-12T01:43:54;101492.44;;;22.24;82.38
68075;BME280;54864;52.002;5.468;2023-08-12T01:44:56;101497.06;;;22.22;82.44
68075;BME280;54864;52.002;5.468;2023-08-12T01:45:57;101498.06;;;22.21;82.32
68075;BME280;54864;52.002;5.468;2023-08-12T01:46:59;101491.84;;;22.20;82.38
68075;BME280;54864;52.002;5.468;2023-08-12T01:48:00;101490.00;;;22.21;82.40
68075;BME280;54864;52.002;5.468;2023-08-12T01:49:02;101495.38;;;22.21;82.29
68075;BME280;54864;52.002;5.468;2023-08-12T01:50:03;101491.09;;;22.18;82.33
68075;BME280;54864;52.002;5.468;2023-08-12T01:51:05;101485.88;;;22.17;82.30
68075;BME280;54864;52.002;5.468;2023-08-12T01:52:06;101483.19;;;22.17;82.25
68075;BME280;54864;52.002;5.468;2023-08-12T01:53:08;101487.81;;;22.14;82.39
68075;BME280;54864;52.002;5.468;2023-08-12T01:54:09;101485.88;;;22.17;82.22
68075;BME280;54864;52.002;5.468;2023-08-12T01:55:12;101482.94;;;22.08;82.79
68075;BME280;54864;52.002;5.468;2023-08-12T01:56:12;101483.56;;;22.12;82.67
68075;BME280;54864;52.002;5.468;2023-08-12T01:57:17;101483.19;;;22.05;83.22
68075;BME280;54864;52.002;5.468;2023-08-12T01:58:18;101483.66;;;22.10;83.23
68075;BME280;54864;52.002;5.468;2023-08-12T01:59:20;101484.91;;;22.06;83.41
68075;BME280;54864;52.002;5.468;2023-08-12T02:00:21;101484.75;;;22.08;83.65
68075;BME280;54864;52.002;5.468;2023-08-12T02:01:22;101487.59;;;22.06;83.62
68075;BME280;54864;52.002;5.468;2023-08-12T02:02:23;101480.38;;;22.07;83.93
68075;BME280;54864;52.002;5.468;2023-08-12T02:03:25;101483.06;;;22.07;84.00
68075;BME280;54864;52.002;5.468;2023-08-12T02:04:25;101481.94;;;22.09;83.90
68075;BME280;54864;52.002;5.468;2023-08-12T02:05:27;101484.41;;;22.12;83.83
68075;BME280;54864;52.002;5.468;2023-08-12T02:06:28;101480.97;;;22.10;83.92
68075;BME280;54864;52.002;5.468;2023-08-12T02:07:32;101488.09;;;22.11;83.96
68075;BME280;54864;52.002;5.468;2023-08-12T02:08:33;101479.16;;;22.11;84.16
68075;BME280;54864;52.002;5.468;2023-08-12T02:09:35;101481.72;;;22.12;84.19
68075;BME280;54864;52.002;5.468;2023-08-12T02:10:37;101474.41;;;22.14;84.00
68075;BME280;54864;52.002;5.468;2023-08-12T02:11:38;101484.28;;;22.14;84.47
68075;BME280;54864;52.002;5.468;2023-08-12T02:12:39;101480.25;;;22.08;84.66
68075;BME280;54864;52.002;5.468;2023-08-12T02:13:41;101476.72;;;22.08;84.35
68075;BME280;54864;52.002;5.468;2023-08-12T02:14:42;101477.09;;;22.03;84.91
68075;BME280;54864;52.002;5.468;2023-08-12T02:15:43;101477.69;;;22.07;84.72
68075;BME280;54864;52.002;5.468;2023-08-12T02:16:53;101476.72;;;22.08;84.92
68075;BME280;54864;52.002;5.468;2023-08-12T02:17:57;101473.66;;;22.12;84.73
68075;BME280;54864;52.002;5.468;2023-08-12T02:18:59;101463.91;;;22.11;84.74
68075;BME280;54864;52.002;5.468;2023-08-12T02:20:01;101469.28;;;22.11;84.99
68075;BME280;54864;52.002;5.468;2023-08-12T02:21:01;101474.28;;;22.16;84.96
68075;BME280;54864;52.002;5.468;2023-08-12T02:22:03;101469.88;;;22.15;84.96
68075;BME280;54864;52.002;5.468;2023-08-12T02:23:04;101469.63;;;22.18;84.95
68075;BME280;54864;52.002;5.468;2023-08-12T02:24:07;101467.06;;;22.17;85.04
68075;BME280;54864;52.002;5.468;2023-08-12T02:25:08;101466.94;;;22.18;84.92
68075;BME280;54864;52.002;5.468;2023-08-12T02:26:10;101474.75;;;22.21;84.86
68075;BME280;54864;52.002;5.468;2023-08-12T02:27:12;101459.22;;;22.25;84.71
68075;BME280;54864;52.002;5.468;2023-08-12T02:28:15;101464.72;;;22.23;84.65
68075;BME280;54864;52.002;5.468;2023-08-12T02:29:17;101471.78;;;22.24;84.57
68075;BME280;54864;52.002;5.468;2023-08-12T02:30:17;101462.75;;;22.25;84.73
68075;BME280;54864;52.002;5.468;2023-08-12T02:31:20;101462.88;;;22.24;84.60
68075;BME280;54864;52.002;5.468;2023-08-12T02:32:20;101462.50;;;22.28;84.64
68075;BME280;54864;52.002;5.468;2023-08-12T02:33:22;101454.31;;;22.30;84.58
68075;BME280;54864;52.002;5.468;2023-08-12T02:34:23;101461.38;;;22.31;84.53
68075;BME280;54864;52.002;5.468;2023-08-12T02:35:24;101454.44;;;22.28;84.83
68075;BME280;54864;52.002;5.468;2023-08-12T02:36:25;101453.31;;;22.31;84.65
68075;BME280;54864;52.002;5.468;2023-08-12T02:37:27;101459.53;;;22.31;84.66
68075;BME280;54864;52.002;5.468;2023-08-12T02:38:28;101455.03;;;22.32;84.80
68075;BME280;54864;52.002;5.468;2023-08-12T02:39:29;101458.81;;;22.29;85.25
68075;BME280;54864;52.002;5.468;2023-08-12T02:40:30;101457.84;;;22.30;85.23
68075;BME280;54864;52.002;5.468;2023-08-12T02:41:33;101458.44;;;22.34;85.23
68075;BME280;54864;52.002;5.468;2023-08-12T02:42:34;101454.50;;;22.38;85.21
68075;BME280;54864;52.002;5.468;2023-08-12T02:43:36;101453.91;;;22.34;85.39
68075;BME280;54864;52.002;5.468;2023-08-12T02:44:36;101456.34;;;22.37;85.15
68075;BME280;54864;52.002;5.468;2023-08-12T02:45:38;101451.56;;;22.41;85.00
68075;BME280;54864;52.002;5.468;2023-08-12T02:46:39;101455.22;;;22.40;85.22
68075;BME280;54864;52.002;5.468;2023-08-12T02:47:40;101449.84;;;22.40;85.17
68075;BME280;54864;52.002;5.468;2023-08-12T02:48:42;101446.91;;;22.43;85.08
68075;BME280;54864;52.002;5.468;2023-08-12T02:49:44;101450.19;;;22.46;85.31
68075;BME280;54864;52.002;5.468;2023-08-12T02:50:45;101448.59;;;22.44;85.58
68075;BME280;54864;52.002;5.468;2023-08-12T02:51:47;101455.41;;;22.48;85.07
68075;BME280;54864;52.002;5.468;2023-08-12T02:52:47;101448.59;;;22.44;85.53
68075;BME280;54864;52.002;5.468;2023-08-12T02:53:49;101443.94;;;22.46;85.63
68075;BME280;54864;52.002;5.468;2023-08-12T02:54:50;101440.53;;;22.44;85.58
68075;BME280;54864;52.002;5.468;2023-08-12T02:55:51;101443.50;;;22.41;85.85
68075;BME280;54864;52.002;5.468;2023-08-12T02:56:53;101441.25;;;22.46;85.64
68075;BME280;54864;52.002;5.468;2023-08-12T02:57:55;101439.16;;;22.50;85.46
68075;BME280;54864;52.002;5.468;2023-08-12T02:58:56;101428.28;;;22.51;85.08
68075;BME280;54864;52.002;5.468;2023-08-12T02:59:58;101432.81;;;22.51;85.32
68075;BME280;54864;52.002;5.468;2023-08-12T03:00:58;101432.94;;;22.49;85.11
68075;BME280;54864;52.002;5.468;2023-08-12T03:02:05;101432.53;;;22.54;85.02
68075;BME280;54864;52.002;5.468;2023-08-12T03:03:07;101436.09;;;22.54;85.18
68075;BME280;54864;52.002;5.468;2023-08-12T03:04:07;101435.38;;;22.52;85.09
68075;BME280;54864;52.002;5.468;2023-08-12T03:05:10;101434.50;;;22.52;84.95
68075;BME280;54864;52.002;5.468;2023-08-12T03:06:10;101431.81;;;22.52;85.03
68075;BME280;54864;52.002;5.468;2023-08-12T03:07:12;101426.31;;;22.53;84.86
68075;BME280;54864;52.002;5.468;2023-08-12T03:08:13;101435.94;;;22.56;84.77
68075;BME280;54864;52.002;5.468;2023-08-12T03:09:14;101425.19;;;22.56;84.69
68075;BME280;54864;52.002;5.468;2023-08-12T03:10:15;101427.03;;;22.55;84.69
68075;BME280;54864;52.002;5.468;2023-08-12T03:11:17;101422.25;;;22.59;84.77
68075;BME280;54864;52.002;5.468;2023-08-12T03:12:20;101424.09;;;22.58;84.58
68075;BME280;54864;52.002;5.468;2023-08-12T03:13:22;101426.91;;;22.57;84.32
68075;BME280;54864;52.002;5.468;2023-08-12T03:14:23;101420.69;;;22.56;84.43
68075;BME280;54864;52.002;5.468;2023-08-12T03:15:24;101417.72;;;22.59;84.10
68075;BME280;54864;52.002;5.468;2023-08-12T03:16:25;101411.75;;;22.56;84.77
68075;BME280;54864;52.002;5.468;2023-08-12T03:17:27;101413.47;;;22.57;84.79
68075;BME280;54864;52.002;5.468;2023-08-12T03:18:27;101411.75;;;22.56;84.86
68075;BME280;54864;52.002;5.468;2023-08-12T03:19:29;101410.19;;;22.53;84.96
68075;BME280;54864;52.002;5.468;2023-08-12T03:20:30;101416.41;;;22.54;84.91
68075;BME280;54864;52.002;5.468;2023-08-12T03:21:32;101415.69;;;22.52;85.17
68075;BME280;54864;52.002;5.468;2023-08-12T03:22:32;101415.69;;;22.52;85.26
68075;BME280;54864;52.002;5.468;2023-08-12T03:23:35;101419.38;;;22.51;85.14
68075;BME280;54864;52.002;5.468;2023-08-12T03:24:36;101413.72;;;22.54;84.79
68075;BME280;54864;52.002;5.468;2023-08-12T03:25:38;101415.56;;;22.53;84.84
68075;BME280;54864;52.002;5.468;2023-08-12T03:26:38;101411.91;;;22.54;84.69
68075;BME280;54864;52.002;5.468;2023-08-12T03:27:42;101402.13;;;22.53;84.60
68075;BME280;54864;52.002;5.468;2023-08-12T03:28:42;101404.69;;;22.55;84.84
68075;BME280;54864;52.002;5.468;2023-08-12T03:29:44;101411.63;;;22.57;84.72
68075;BME280;54864;52.002;5.468;2023-08-12T03:30:50;101401.88;;;22.56;85.05
68075;BME280;54864;52.002;5.468;2023-08-12T03:31:51;101407.25;;;22.56;85.07
68075;BME280;54864;52.002;5.468;2023-08-12T03:32:53;101405.28;;;22.58;85.18
68075;BME280;54864;52.002;5.468;2023-08-12T03:33:54;101406.97;;;22.59;85.18
68075;BME280;54864;52.002;5.468;2023-08-12T03:34:55;101404.41;;;22.58;85.03
68075;BME280;54864;52.002;5.468;2023-08-12T03:35:56;101395.50;;;22.57;85.14
68075;BME280;54864;52.002;5.468;2023-08-12T03:36:58;101396.63;;;22.55;85.22
68075;BME280;54864;52.002;5.468;2023-08-12T03:37:58;101401.72;;;22.58;85.10
68075;BME280;54864;52.002;5.468;2023-08-12T03:39:00;101397.59;;;22.54;85.35
68075;BME280;54864;52.002;5.468;2023-08-12T03:40:01;101394.78;;;22.55;85.20
68075;BME280;54864;52.002;5.468;2023-08-12T03:41:03;101391.25;;;22.55;85.17
68075;BME280;54864;52.002;5.468;2023-08-12T03:42:04;101389.28;;;22.57;85.00
68075;BME280;54864;52.002;5.468;2023-08-12T03:43:08;101389.28;;;22.57;84.96
68075;BME280;54864;52.002;5.468;2023-08-12T03:44:09;101380.94;;;22.60;84.70
68075;BME280;54864;52.002;5.468;2023-08-12T03:45:10;101384.03;;;22.55;85.07
68075;BME280;54864;52.002;5.468;2023-08-12T03:46:11;101388.28;;;22.58;84.88
68075;BME280;54864;52.002;5.468;2023-08-12T03:47:13;101379.50;;;22.56;85.36
68075;BME280;54864;52.002;5.468;2023-08-12T03:48:14;101383.75;;;22.58;85.44
68075;BME280;54864;52.002;5.468;2023-08-12T03:49:16;101380.63;;;22.53;85.59
68075;BME280;54864;52.002;5.468;2023-08-12T03:50:17;101384.88;;;22.56;85.74
68075;BME280;54864;52.002;5.468;2023-08-12T03:51:18;101385.16;;;22.53;86.90
68075;BME280;54864;52.002;5.468;2023-08-12T03:52:19;101388.69;;;22.53;86.97
68075;BME280;54864;52.002;5.468;2023-08-12T03:53:21;101387.13;;;22.51;87.13
68075;BME280;54864;52.002;5.468;2023-08-12T03:54:22;101391.50;;;22.52;87.06
68075;BME280;54864;52.002;5.468;2023-08-12T03:55:23;101384.84;;;22.46;87.66
68075;BME280;54864;52.002;5.468;2023-08-12T03:56:24;101382.72;;;22.50;87.74
68075;BME280;54864;52.002;5.468;2023-08-12T03:57:26;101383.19;;;22.55;87.40
68075;BME280;54864;52.002;5.468;2023-08-12T03:58:28;101375.84;;;22.57;87.54
68075;BME280;54864;52.002;5.468;2023-08-12T03:59:30;101379.63;;;22.54;87.49
68075;BME280;54864;52.002;5.468;2023-08-12T04:00:30;101377.41;;;22.59;87.55
68075;BME280;54864;52.002;5.468;2023-08-12T04:01:32;101377.41;;;22.59;87.98
68075;BME280;54864;52.002;5.468;2023-08-12T04:02:33;101381.53;;;22.63;87.97
68075;BME280;54864;52.002;5.468;2023-08-12T04:03:34;101379.44;;;22.67;87.86
68075;BME280;54864;52.002;5.468;2023-08-12T04:04:35;101377.31;;;22.70;87.52
68075;BME280;54864;52.002;5.468;2023-08-12T04:05:37;101370.94;;;22.71;87.74
68075;BME280;54864;52.002;5.468;2023-08-12T04:06:37;101362.03;;;22.71;88.12
68075;BME280;54864;52.002;5.468;2023-08-12T04:07:39;101363.59;;;22.73;88.29
68075;BME280;54864;52.002;5.468;2023-08-12T04:08:40;101364.47;;;22.74;88.07
68075;BME280;54864;52.002;5.468;2023-08-12T04:09:42;101371.09;;;22.70;88.35
68075;BME280;54864;52.002;5.468;2023-08-12T04:10:45;101369.66;;;22.66;89.05
68075;BME280;54864;52.002;5.468;2023-08-12T04:11:47;101365.66;;;22.60;90.02
68075;BME280;54864;52.002;5.468;2023-08-12T04:12:48;101362.84;;;22.62;90.07
68075;BME280;54864;52.002;5.468;2023-08-12T04:13:51;101361.84;;;22.63;90.17
68075;BME280;54864;52.002;5.468;2023-08-12T04:14:52;101362.44;;;22.66;90.30
68075;BME280;54864;52.002;5.468;2023-08-12T04:15:54;101361.47;;;22.67;90.26
68075;BME280;54864;52.002;5.468;2023-08-12T04:16:54;101356.38;;;22.74;90.08
68075;BME280;54864;52.002;5.468;2023-08-12T04:17:56;101358.22;;;22.73;89.92
68075;BME280;54864;52.002;5.468;2023-08-12T04:18:57;101362.63;;;22.74;90.04
68075;BME280;54864;52.002;5.468;2023-08-12T04:19:58;101360.69;;;22.76;89.97
68075;BME280;54864;52.002;5.468;2023-08-12T04:20:59;101359.56;;;22.58;90.92
68075;BME280;54864;52.002;5.468;2023-08-12T04:22:02;101360.44;;;22.59;91.56
68075;BME280;54864;52.002;5.468;2023-08-12T04:23:03;101361.16;;;22.61;91.47
68075;BME280;54864;52.002;5.468;2023-08-12T04:24:04;101350.84;;;22.66;91.38
68075;BME280;54864;52.002;5.468;2023-08-12T04:25:07;101354.09;;;22.69;90.80
68075;BME280;54864;52.002;5.468;2023-08-12T04:26:08;101358.06;;;22.65;90.89
68075;BME280;54864;52.002;5.468;2023-08-12T04:27:09;101358.78;;;22.67;90.86
68075;BME280;54864;52.002;5.468;2023-08-12T04:28:10;101361.84;;;22.63;91.33
68075;BME280;54864;52.002;5.468;2023-08-12T04:29:13;101358.78;;;22.67;91.33
68075;BME280;54864;52.002;5.468;2023-08-12T04:30:14;101360.75;;;22.65;91.31
68075;BME280;54864;52.002;5.468;2023-08-12T04:31:16;101359.09;;;22.74;90.88
68075;BME280;54864;52.002;5.468;2023-08-12T04:32:16;101358.22;;;22.73;90.42
68075;BME280;54864;52.002;5.468;2023-08-12T04:33:18;101362.16;;;22.81;90.37
68075;BME280;54864;52.002;5.468;2023-08-12T04:34:20;101359.81;;;22.76;89.96
68075;BME280;54864;52.002;5.468;2023-08-12T04:35:22;101351.16;;;22.72;89.97
68075;BME280;54864;52.002;5.468;2023-08-12T04:36:22;101350.88;;;22.75;90.39
68075;BME280;54864;52.002;5.468;2023-08-12T04:37:24;101348.81;;;22.79;90.25
68075;BME280;54864;52.002;5.468;2023-08-12T04:38:26;101337.66;;;22.84;89.73
68075;BME280;54864;52.002;5.468;2023-08-12T04:39:28;101334.72;;;22.87;89.54
68075;BME280;54864;52.002;5.468;2023-08-12T04:40:29;101341.78;;;22.88;89.91
68075;BME280;54864;52.002;5.468;2023-08-12T04:41:31;101337.13;;;22.90;89.72
68075;BME280;54864;52.002;5.468;2023-08-12T04:42:31;101341.66;;;22.89;89.49
68075;BME280;54864;52.002;5.468;2023-08-12T04:43:33;101337.56;;;22.95;89.46
68075;BME280;54864;52.002;5.468;2023-08-12T04:44:35;101326.41;;;22.99;89.28
68075;BME280;54864;52.002;5.468;2023-08-12T04:45:37;101325.81;;;22.96;88.62
68075;BME280;54864;52.002;5.468;2023-08-12T04:46:38;101323.00;;;22.97;88.88
68075;BME280;54864;52.002;5.468;2023-08-12T04:47:40;101317.19;;;23.02;88.29
68075;BME280;54864;52.002;5.468;2023-08-12T04:48:41;101321.44;;;23.04;88.51
68075;BME280;54864;52.002;5.468;2023-08-12T04:49:42;101309.44;;;23.08;88.17
68075;BME280;54864;52.002;5.468;2023-08-12T04:50:43;101304.06;;;23.08;88.42
68075;BME280;54864;52.002;5.468;2023-08-12T04:51:47;101307.31;;;23.12;88.37
68075;BME280;54864;52.002;5.468;2023-08-12T04:52:48;101303.34;;;23.16;87.98
68075;BME280;54864;52.002;5.468;2023-08-12T04:53:52;101303.94;;;23.20;87.41
68075;BME280;54864;52.002;5.468;2023-08-12T04:54:53;101301.38;;;23.18;87.88
68075;BME280;54864;52.002;5.468;2023-08-12T04:55:55;101312.84;;;23.20;87.50
68075;BME280;54864;52.002;5.468;2023-08-12T04:56:57;101308.19;;;23.22;87.07
68075;BME280;54864;52.002;5.468;2023-08-12T04:57:59;101305.91;;;23.27;86.70
68075;BME280;54864;52.002;5.468;2023-08-12T04:59:00;101311.16;;;23.29;86.68
68075;BME280;54864;52.002;5.468;2023-08-12T05:00:04;101304.66;;;23.31;86.26
68075;BME280;54864;52.002;5.468;2023-08-12T05:01:05;101304.91;;;23.19;86.78
68075;BME280;54864;52.002;5.468;2023-08-12T05:02:07;101304.34;;;23.15;86.71
68075;BME280;54864;52.002;5.468;2023-08-12T05:03:07;101302.78;;;23.13;87.50
68075;BME280;54864;52.002;5.468;2023-08-12T05:04:09;101305.75;;;23.19;87.11
68075;BME280;54864;52.002;5.468;2023-08-12T05:05:10;101305.63;;;23.21;86.71
68075;BME280;54864;52.002;5.468;2023-08-12T05:06:12;101307.31;;;23.22;86.29
68075;BME280;54864;52.002;5.468;2023-08-12T05:07:12;101301.25;;;23.20;86.64
68075;BME280;54864;52.002;5.468;2023-08-12T05:08:14;101299.13;;;23.23;86.43
68075;BME280;54864;52.002;5.468;2023-08-12T05:09:15;101296.97;;;23.17;86.32
68075;BME280;54864;52.002;5.468;2023-08-12T05:10:17;101295.28;;;23.16;86.72
68075;BME280;54864;52.002;5.468;2023-08-12T05:11:18;101302.38;;;23.17;86.59
68075;BME280;54864;52.002;5.468;2023-08-12T05:12:20;101303.78;;;23.12;86.79
68075;BME280;54864;52.002;5.468;2023-08-12T05:13:20;101294.84;;;23.11;87.11
68075;BME280;54864;52.002;5.468;2023-08-12T05:14:23;101295.53;;;22.94;87.32
68075;BME280;54864;52.002;5.468;2023-08-12T05:15:25;101297.38;;;22.93;87.96
68075;BME280;54864;52.002;5.468;2023-08-12T05:16:27;101304.44;;;22.94;87.93
68075;BME280;54864;52.002;5.468;2023-08-12T05:17:29;101302.31;;;22.88;88.35
68075;BME280;54864;52.002;5.468;2023-08-12T05:18:31;101301.31;;;22.89;88.48
68075;BME280;54864;52.002;5.468;2023-08-12T05:19:31;101299.91;;;22.95;88.40
68075;BME280;54864;52.002;5.468;2023-08-12T05:20:33;101307.53;;;22.90;88.35
68075;BME280;54864;52.002;5.468;2023-08-12T05:21:34;101296.34;;;22.85;88.36
68075;BME280;54864;52.002;5.468;2023-08-12T05:22:35;101305.28;;;22.85;88.45
68075;BME280;54864;52.002;5.468;2023-08-12T05:23:36;101300.31;;;22.81;88.88